createdAt,value
2023-01-22T00:01:30.545Z,97094.97
2023-01-22T00:03:59.163Z,97133.06
2023-01-22T00:06:28.034Z,97110.38
2023-01-22T00:09:03.705Z,97130.53
2023-01-22T00:11:32.010Z,97116.06
2023-01-22T00:14:00.211Z,97157.72
2023-01-22T00:16:28.411Z,97128.94
2023-01-22T00:18:56.597Z,97114.53
2023-01-22T00:21:24.839Z,97142.22
2023-01-22T00:23:53.048Z,97119.06
2023-01-22T00:26:23.242Z,97152.56
2023-01-22T00:28:51.936Z,97135.31
2023-01-22T00:31:20.715Z,97107.06
2023-01-22T00:33:49.361Z,97097.88
2023-01-22T00:36:21.209Z,97108.06
2023-01-22T00:38:50.508Z,96993.91
2023-01-22T00:41:20.515Z,97079.75
2023-01-22T00:43:52.830Z,97123.16
2023-01-22T00:46:21.329Z,97121.34
2023-01-22T00:48:51.098Z,97168.72
2023-01-22T00:51:19.550Z,97098.00
2023-01-22T00:53:48.163Z,97128.47
2023-01-22T00:56:17.990Z,97104.19
2023-01-22T00:58:46.201Z,97086.88
2023-01-22T01:01:16.524Z,97113.50
2023-01-22T01:03:45.147Z,97119.69
2023-01-22T01:06:17.000Z,97067.47
2023-01-22T01:08:47.954Z,97114.03
2023-01-22T01:11:18.716Z,97102.06
2023-01-22T01:13:46.904Z,97081.41
2023-01-22T01:16:19.323Z,97110.72
2023-01-22T01:18:48.290Z,97140.03
2023-01-22T01:21:19.276Z,97051.63
2023-01-22T01:23:47.943Z,97115.56
2023-01-22T01:26:18.959Z,97080.78
2023-01-22T01:28:47.780Z,97112.66
2023-01-22T01:31:18.378Z,97112.28
2023-01-22T01:33:48.566Z,97100.19
2023-01-22T01:36:30.715Z,97123.63
2023-01-22T01:39:07.729Z,97089.75
2023-01-22T01:41:35.908Z,97098.53
2023-01-22T01:44:13.581Z,97130.28
2023-01-22T01:46:48.472Z,97122.41
2023-01-22T01:49:23.826Z,97094.13
2023-01-22T01:51:53.616Z,97073.47
2023-01-22T01:54:22.174Z,97125.56
2023-01-22T01:56:55.174Z,97093.88
2023-01-22T01:59:23.842Z,97124.06
2023-01-22T02:01:57.533Z,97088.47
2023-01-22T02:04:26.251Z,97122.09
2023-01-22T02:06:55.564Z,97121.03
2023-01-22T02:09:24.103Z,97117.56
2023-01-22T02:11:53.270Z,97079.94
2023-01-22T02:14:26.954Z,97059.84
2023-01-22T02:17:03.788Z,97059.03
2023-01-22T02:19:31.990Z,97135.31
2023-01-22T02:22:01.764Z,97106.78
2023-01-22T02:24:31.931Z,97100.38
2023-01-22T02:27:00.189Z,97134.69
2023-01-22T02:29:29.021Z,97032.59
2023-01-22T02:31:57.316Z,97103.88
2023-01-22T02:34:25.607Z,97120.13
2023-01-22T02:36:55.538Z,97107.28
2023-01-22T02:39:25.207Z,97148.97
2023-01-22T02:41:54.743Z,97058.03
2023-01-22T02:44:23.096Z,97123.31
2023-01-22T02:46:51.547Z,97098.25
2023-01-22T02:49:19.855Z,97133.88
2023-01-22T02:51:48.132Z,97135.53
2023-01-22T02:54:16.364Z,97096.13
2023-01-22T02:56:45.983Z,97083.38
2023-01-22T02:59:14.283Z,97114.88
2023-01-22T03:01:42.737Z,97123.03
2023-01-22T03:04:13.502Z,97081.72
2023-01-22T03:06:45.091Z,97109.09
2023-01-22T03:09:16.958Z,97133.03
2023-01-22T03:11:49.275Z,97100.69
2023-01-22T03:14:42.848Z,97026.09
2023-01-22T03:17:28.960Z,97118.28
2023-01-22T03:20:15.266Z,97106.91
2023-01-22T03:22:43.641Z,97084.56
2023-01-22T03:25:11.839Z,97087.91
2023-01-22T03:28:01.977Z,97091.41
2023-01-22T03:30:31.144Z,97095.50
2023-01-22T03:32:59.872Z,97218.09
2023-01-22T03:35:28.238Z,97135.91
2023-01-22T03:38:13.529Z,97142.16
2023-01-22T03:40:41.772Z,97107.31
2023-01-22T03:43:12.083Z,97101.44
2023-01-22T03:45:40.313Z,97152.44
2023-01-22T03:48:11.992Z,97101.44
2023-01-22T03:50:42.395Z,97055.09
2023-01-22T03:53:10.593Z,97146.69
2023-01-22T03:55:38.848Z,97113.44
2023-01-22T03:58:07.108Z,97114.34
2023-01-22T04:00:38.156Z,97140.91
2023-01-22T04:03:08.433Z,97136.94
2023-01-22T04:05:40.189Z,97090.78
2023-01-22T04:08:08.404Z,97119.13
2023-01-22T04:10:40.301Z,97107.63
2023-01-22T04:13:08.570Z,97136.34
2023-01-22T04:15:39.584Z,97071.28
2023-01-22T04:18:18.809Z,97101.84
2023-01-22T04:21:00.162Z,97147.28
2023-01-22T04:23:43.252Z,97123.19
2023-01-22T04:26:11.919Z,97113.09
2023-01-22T04:28:40.557Z,97122.22
2023-01-22T04:31:11.154Z,97152.75
2023-01-22T04:33:43.699Z,97060.50
2023-01-22T04:36:18.112Z,97071.59
2023-01-22T04:38:46.443Z,97122.81
2023-01-22T04:41:14.691Z,97128.34
2023-01-22T04:43:42.943Z,97135.06
2023-01-22T04:46:12.551Z,97101.22
2023-01-22T04:48:40.777Z,97116.16
2023-01-22T04:51:09.075Z,97179.44
2023-01-22T04:53:37.257Z,97136.41
2023-01-22T04:56:08.480Z,97102.91
2023-01-22T04:58:36.686Z,97123.75
2023-01-22T05:01:05.623Z,97107.94
2023-01-22T05:03:36.078Z,97090.59
2023-01-22T05:06:05.909Z,97142.28
2023-01-22T05:08:36.517Z,97127.53
2023-01-22T05:11:05.814Z,97123.25
2023-01-22T05:13:47.103Z,97163.53
2023-01-22T05:16:15.816Z,97105.78
2023-01-22T05:18:45.384Z,97149.28
2023-01-22T05:21:13.617Z,97090.59
2023-01-22T05:23:41.885Z,97126.44
2023-01-22T05:26:10.501Z,97178.63
2023-01-22T05:29:00.922Z,97169.13
2023-01-22T05:31:35.274Z,97130.56
2023-01-22T05:34:07.583Z,97154.72
2023-01-22T05:36:35.830Z,97183.56
2023-01-22T05:39:17.150Z,97188.75
2023-01-22T05:41:46.264Z,97145.91
2023-01-22T05:44:16.092Z,97132.13
2023-01-22T05:46:49.979Z,97190.09
2023-01-22T05:49:30.204Z,97161.88
2023-01-22T05:52:00.247Z,97172.66
2023-01-22T05:54:28.868Z,97146.91
2023-01-22T05:56:58.942Z,97219.59
2023-01-22T05:59:27.175Z,97202.28
2023-01-22T06:02:00.368Z,97189.97
2023-01-22T06:04:30.194Z,97189.19
2023-01-22T06:07:00.908Z,97198.09
2023-01-22T06:09:30.093Z,97157.28
2023-01-22T06:11:58.452Z,97171.13
2023-01-22T06:14:26.677Z,97194.81
2023-01-22T06:16:57.994Z,97199.81
2023-01-22T06:19:35.668Z,97184.47
2023-01-22T06:22:04.069Z,97187.81
2023-01-22T06:24:45.856Z,97176.28
2023-01-22T06:27:15.759Z,97182.34
2023-01-22T06:29:53.908Z,97182.34
2023-01-22T06:32:22.657Z,97220.03
2023-01-22T06:34:54.028Z,97218.03
2023-01-22T06:37:23.023Z,97202.69
2023-01-22T06:39:52.677Z,97203.22
2023-01-22T06:42:25.317Z,97229.28
2023-01-22T06:44:53.573Z,97180.66
2023-01-22T06:47:25.306Z,97128.09
2023-01-22T06:49:55.308Z,97191.66
2023-01-22T06:52:23.549Z,97195.34
2023-01-22T06:54:51.962Z,97216.34
2023-01-22T06:57:20.277Z,97227.47
2023-01-22T06:59:48.586Z,97195.34
2023-01-22T07:02:19.136Z,97220.69
2023-01-22T07:04:48.023Z,97228.03
2023-01-22T07:07:17.642Z,97211.38
2023-01-22T07:09:45.823Z,97240.81
2023-01-22T07:12:14.087Z,97229.72
2023-01-22T07:14:42.326Z,97258.75
2023-01-22T07:17:11.246Z,97253.50
2023-01-22T07:19:39.465Z,97233.19
2023-01-22T07:22:07.941Z,97252.06
2023-01-22T07:24:37.595Z,97262.44
2023-01-22T07:27:05.796Z,97246.59
2023-01-22T07:29:33.991Z,97268.56
2023-01-22T07:32:02.184Z,97256.03
2023-01-22T07:34:30.383Z,97259.06
2023-01-22T07:36:58.756Z,97261.94
2023-01-22T07:39:27.000Z,97268.78
2023-01-22T07:42:01.136Z,97263.59
2023-01-22T07:44:31.880Z,97263.59
2023-01-22T07:47:00.078Z,97237.75
2023-01-22T07:49:28.584Z,97281.28
2023-01-22T07:51:56.832Z,97272.13
2023-01-22T07:54:25.166Z,97304.06
2023-01-22T07:56:53.357Z,97290.81
2023-01-22T07:59:23.162Z,97276.06
2023-01-22T08:01:51.584Z,97283.31
2023-01-22T08:04:19.849Z,97280.97
2023-01-22T08:06:48.259Z,97260.69
2023-01-22T08:09:23.299Z,97278.78
2023-01-22T08:11:52.424Z,97290.81
2023-01-22T08:14:29.877Z,97294.28
2023-01-22T08:16:58.104Z,97275.50
2023-01-22T08:19:26.273Z,97287.75
2023-01-22T08:21:54.489Z,97244.47
2023-01-22T08:24:23.029Z,97246.38
2023-01-22T08:26:51.244Z,97308.56
2023-01-22T08:29:19.872Z,97264.16
2023-01-22T08:31:49.605Z,97293.78
2023-01-22T08:34:18.067Z,97298.56
2023-01-22T08:36:46.381Z,97290.47
2023-01-22T08:39:14.706Z,97322.88
2023-01-22T08:41:43.498Z,97326.38
2023-01-22T08:44:14.239Z,97283.88
2023-01-22T08:46:42.417Z,97192.75
2023-01-22T08:49:12.161Z,97282.06
2023-01-22T08:51:40.404Z,97345.97
2023-01-22T08:54:08.578Z,97343.50
2023-01-22T08:56:36.777Z,97308.25
2023-01-22T08:59:06.575Z,97340.66
2023-01-22T09:01:38.800Z,97384.31
2023-01-22T09:04:07.986Z,97242.25
2023-01-22T09:06:41.673Z,97343.56
2023-01-22T09:09:09.889Z,97308.38
2023-01-22T09:11:38.115Z,97415.91
2023-01-22T09:14:08.387Z,97285.66
2023-01-22T09:16:36.884Z,97321.72
2023-01-22T09:19:05.283Z,97307.25
2023-01-22T09:21:37.213Z,97139.47
2023-01-22T09:24:08.162Z,97314.47
2023-01-22T09:26:37.811Z,97459.06
2023-01-22T09:29:07.111Z,97331.16
2023-01-22T09:31:36.506Z,97369.91
2023-01-22T09:34:05.395Z,97349.72
2023-01-22T09:36:33.659Z,97339.34
2023-01-22T09:39:01.860Z,97346.22
2023-01-22T09:41:35.675Z,97411.63
2023-01-22T09:44:12.655Z,97351.03
2023-01-22T09:46:44.459Z,97374.03
2023-01-22T09:49:17.338Z,97370.41
2023-01-22T09:51:49.633Z,97383.34
2023-01-22T09:54:18.112Z,97371.78
2023-01-22T09:56:51.347Z,97244.97
2023-01-22T09:59:22.297Z,97386.19
2023-01-22T10:01:54.454Z,97347.16
2023-01-22T10:04:36.334Z,97378.47
2023-01-22T10:07:12.417Z,97309.81
2023-01-22T10:09:46.465Z,97360.69
2023-01-22T10:12:16.037Z,97387.16
2023-01-22T10:14:45.621Z,97387.91
2023-01-22T10:17:22.150Z,97407.06
2023-01-22T10:19:55.072Z,97332.84
2023-01-22T10:22:26.210Z,97315.63
2023-01-22T10:24:54.954Z,97386.06
2023-01-22T10:27:33.007Z,97366.13
2023-01-22T10:30:09.082Z,97346.16
2023-01-22T10:32:37.304Z,97386.75
2023-01-22T10:35:15.801Z,97387.03
2023-01-22T10:37:46.523Z,97377.31
2023-01-22T10:40:38.080Z,97355.25
2023-01-22T10:43:12.732Z,97370.47
2023-01-22T10:45:51.770Z,97337.34
2023-01-22T10:48:21.891Z,97227.66
2023-01-22T10:51:04.285Z,97398.69
2023-01-22T10:53:35.664Z,97370.88
2023-01-22T10:56:08.022Z,97322.56
2023-01-22T10:58:39.895Z,97376.63
2023-01-22T11:01:36.824Z,97314.22
2023-01-22T11:04:33.026Z,97398.88
2023-01-22T11:07:08.616Z,97335.53
2023-01-22T11:09:43.241Z,97364.28
2023-01-22T11:12:19.141Z,97368.28
2023-01-22T11:14:56.697Z,97345.06
2023-01-22T11:17:35.046Z,97361.75
2023-01-22T11:20:12.385Z,97359.63
2023-01-22T11:22:45.488Z,97351.56
2023-01-22T11:25:13.842Z,97342.63
2023-01-22T11:27:56.136Z,97371.25
2023-01-22T11:30:49.922Z,97394.28
2023-01-22T11:33:32.195Z,97357.41
2023-01-22T11:36:09.708Z,97399.03
2023-01-22T11:38:49.875Z,97371.81
2023-01-22T11:41:33.471Z,97349.56
2023-01-22T11:44:49.159Z,97424.72
2023-01-22T11:48:00.806Z,97344.88
2023-01-22T11:50:34.403Z,97299.63
2023-01-22T11:53:30.142Z,97380.16
2023-01-22T11:56:27.744Z,97352.16
2023-01-22T11:59:05.578Z,97365.44
2023-01-22T12:01:54.283Z,97330.75
2023-01-22T12:04:52.674Z,97311.44
2023-01-22T12:07:56.712Z,97378.16
2023-01-22T12:10:42.199Z,97352.75
2023-01-22T12:13:27.884Z,97356.59
2023-01-22T12:16:05.666Z,97364.53
2023-01-22T12:19:10.919Z,97352.75
2023-01-22T12:22:01.069Z,97350.38
2023-01-22T12:24:36.886Z,97217.13
2023-01-22T12:27:12.358Z,97328.50
2023-01-22T12:29:46.485Z,97227.81
2023-01-22T12:32:19.053Z,97354.31
2023-01-22T12:34:55.248Z,97360.41
2023-01-22T12:37:28.736Z,97355.19
2023-01-22T12:40:22.207Z,97345.03
2023-01-22T12:42:57.923Z,97358.41
2023-01-22T12:45:36.849Z,97348.69
2023-01-22T12:48:19.525Z,97333.56
2023-01-22T12:50:53.189Z,97340.00
2023-01-22T12:53:27.667Z,97317.81
2023-01-22T12:56:02.465Z,97317.97
2023-01-22T12:58:34.020Z,97352.56
2023-01-22T13:01:07.408Z,97340.06
2023-01-22T13:03:36.082Z,97372.38
2023-01-22T13:06:19.380Z,97328.66
2023-01-22T13:08:49.327Z,97332.13
2023-01-22T13:11:31.217Z,97320.97
2023-01-22T13:14:15.055Z,97353.44
2023-01-22T13:16:55.286Z,97335.72
2023-01-22T13:19:27.195Z,97368.38
2023-01-22T13:22:00.150Z,97349.16
2023-01-22T13:24:30.082Z,97354.22
2023-01-22T13:27:01.644Z,97356.25
2023-01-22T13:29:33.211Z,97357.69
2023-01-22T13:32:04.892Z,97339.22
2023-01-22T13:34:33.597Z,97362.44
2023-01-22T13:39:55.560Z,97412.75
2023-01-22T13:42:27.350Z,97325.28
2023-01-22T13:45:03.723Z,97369.31
2023-01-22T13:47:35.829Z,97375.13
2023-01-22T13:50:05.011Z,97379.31
2023-01-22T13:52:33.824Z,97379.31
2023-01-22T13:55:07.406Z,97368.97
2023-01-22T13:57:35.647Z,97341.38
2023-01-22T14:00:05.454Z,97384.19
2023-01-22T14:02:36.570Z,97369.28
2023-01-22T14:05:05.257Z,97385.16
2023-01-22T14:07:36.485Z,97401.41
2023-01-22T14:10:17.786Z,97380.09
2023-01-22T14:12:46.559Z,97349.91
2023-01-22T14:15:16.955Z,97376.47
2023-01-22T14:17:45.776Z,97395.53
2023-01-22T14:20:14.923Z,97377.31
2023-01-22T14:22:43.181Z,97343.38
2023-01-22T14:25:13.306Z,97395.84
2023-01-22T14:27:44.563Z,97205.28
2023-01-22T14:30:17.375Z,97431.91
2023-01-22T14:32:46.728Z,97410.91
2023-01-22T14:35:19.063Z,97445.69
2023-01-22T14:37:48.443Z,97407.88
2023-01-22T14:40:20.121Z,97409.72
2023-01-22T14:42:48.681Z,97404.88
2023-01-22T14:45:19.498Z,97428.97
2023-01-22T14:47:52.288Z,97444.44
2023-01-22T14:50:21.435Z,97431.47
2023-01-22T14:52:51.040Z,97356.06
2023-01-22T14:55:21.120Z,97378.13
2023-01-22T14:57:49.387Z,97409.56
2023-01-22T15:00:20.731Z,97403.13
2023-01-22T15:02:49.049Z,97378.47
2023-01-22T15:05:21.317Z,97391.78
2023-01-22T15:07:49.673Z,97434.31
2023-01-22T15:10:20.347Z,97408.59
2023-01-22T15:12:50.322Z,97412.25
2023-01-22T15:15:23.135Z,97434.38
2023-01-22T15:17:51.945Z,97448.34
2023-01-22T15:20:21.355Z,97429.47
2023-01-22T15:22:50.606Z,97469.22
2023-01-22T15:25:20.641Z,97384.16
2023-01-22T15:27:48.869Z,97426.28
2023-01-22T15:30:17.897Z,97431.22
2023-01-22T15:32:46.262Z,97404.72
2023-01-22T15:35:14.457Z,97448.34
2023-01-22T15:37:42.689Z,97470.66
2023-01-22T15:40:12.753Z,97480.63
2023-01-22T15:42:42.286Z,97440.66
2023-01-22T15:45:11.455Z,97450.34
2023-01-22T15:47:39.708Z,97459.22
2023-01-22T15:50:09.401Z,97451.28
2023-01-22T15:52:37.583Z,97454.84
2023-01-22T15:55:09.460Z,97459.19
2023-01-22T15:57:37.621Z,97417.16
2023-01-22T16:00:11.252Z,97471.72
2023-01-22T16:02:42.474Z,97437.47
2023-01-22T16:05:11.023Z,97463.47
2023-01-22T16:07:39.224Z,97495.47
2023-01-22T16:10:08.017Z,97407.88
2023-01-22T16:12:36.241Z,97452.84
2023-01-22T16:15:06.947Z,97473.06
2023-01-22T16:17:35.331Z,97424.50
2023-01-22T16:20:05.232Z,97451.63
2023-01-22T16:22:33.530Z,97478.75
2023-01-22T16:25:01.719Z,97465.44
2023-01-22T16:27:29.925Z,97480.88
2023-01-22T16:29:58.082Z,97440.88
2023-01-22T16:32:27.684Z,97499.78
2023-01-22T16:34:55.877Z,97465.50
2023-01-22T16:37:24.340Z,97499.66
2023-01-22T16:39:52.562Z,97513.97
2023-01-22T16:42:20.796Z,97533.44
2023-01-22T16:44:48.995Z,97483.03
2023-01-22T16:47:17.168Z,97508.56
2023-01-22T16:49:46.688Z,97508.91
2023-01-22T16:52:22.294Z,97474.91
2023-01-22T16:54:51.501Z,97507.72
2023-01-22T16:57:20.211Z,97493.88
2023-01-22T16:59:48.490Z,97513.44
2023-01-22T17:02:19.168Z,97508.78
2023-01-22T17:04:48.864Z,97458.94
2023-01-22T17:07:32.900Z,97488.84
2023-01-22T17:10:02.188Z,97520.69
2023-01-22T17:12:31.916Z,97494.16
2023-01-22T17:15:00.096Z,97478.03
2023-01-22T17:17:28.304Z,97541.91
2023-01-22T17:19:57.844Z,97496.28
2023-01-22T17:22:26.714Z,97538.41
2023-01-22T17:24:54.892Z,97481.84
2023-01-22T17:27:25.735Z,97546.09
2023-01-22T17:29:53.913Z,97510.91
2023-01-22T17:32:22.751Z,97532.41
2023-01-22T17:34:50.966Z,97543.28
2023-01-22T17:37:20.630Z,97468.00
2023-01-22T17:39:50.676Z,97522.81
2023-01-22T17:42:20.997Z,97490.56
2023-01-22T17:44:49.185Z,97518.84
2023-01-22T17:47:17.443Z,97521.69
2023-01-22T17:49:47.445Z,97507.28
2023-01-22T17:52:17.821Z,97531.31
2023-01-22T17:54:47.361Z,97525.06
2023-01-22T17:57:15.547Z,97530.78
2023-01-22T17:59:43.724Z,97516.09
2023-01-22T18:02:12.118Z,97538.00
2023-01-22T18:04:40.279Z,97562.69
2023-01-22T18:07:14.302Z,97598.00
2023-01-22T18:09:42.463Z,97581.69
2023-01-22T18:12:12.023Z,97553.09
2023-01-22T18:14:41.083Z,97587.34
2023-01-22T18:17:09.331Z,97517.31
2023-01-22T18:19:37.725Z,97608.31
2023-01-22T18:22:05.942Z,97568.69
2023-01-22T18:24:36.284Z,97557.00
2023-01-22T18:27:04.488Z,97555.19
2023-01-22T18:29:34.021Z,97605.56
2023-01-22T18:32:02.374Z,97575.41
2023-01-22T18:34:30.569Z,97602.34
2023-01-22T18:36:58.765Z,97553.94
2023-01-22T18:39:27.702Z,97534.03
2023-01-22T18:41:55.895Z,97528.44
2023-01-22T18:44:27.617Z,97601.16
2023-01-22T18:46:59.313Z,97540.28
2023-01-22T18:49:28.913Z,97563.84
2023-01-22T18:52:00.784Z,97591.53
2023-01-22T18:54:29.183Z,97606.81
2023-01-22T18:56:57.441Z,97629.44
2023-01-22T18:59:26.195Z,97636.97
2023-01-22T19:04:49.446Z,97575.91
2023-01-22T19:07:17.640Z,97578.91
2023-01-22T19:09:45.897Z,97624.84
2023-01-22T19:12:15.461Z,97624.25
2023-01-22T19:14:44.114Z,97569.31
2023-01-22T19:17:13.835Z,97595.31
2023-01-22T19:19:42.027Z,97601.75
2023-01-22T19:22:10.334Z,97627.00
2023-01-22T19:24:38.529Z,97531.88
2023-01-22T19:27:08.162Z,97626.06
2023-01-22T19:29:36.368Z,97591.84
2023-01-22T19:32:04.699Z,97572.91
2023-01-22T19:34:34.271Z,97603.56
2023-01-22T19:37:03.108Z,97616.47
2023-01-22T19:39:31.533Z,97567.00
2023-01-22T19:42:02.272Z,97632.31
2023-01-22T19:44:31.222Z,97609.19
2023-01-22T19:47:00.183Z,97602.06
2023-01-22T19:49:28.599Z,97586.97
2023-01-22T19:51:58.300Z,97592.41
2023-01-22T19:54:26.878Z,97612.53
2023-01-22T19:56:55.389Z,97591.53
2023-01-22T19:59:25.354Z,97604.56
2023-01-22T20:01:53.715Z,97647.88
2023-01-22T20:04:25.241Z,97627.19
2023-01-22T20:07:00.750Z,97604.03
2023-01-22T20:09:31.113Z,97611.84
2023-01-22T20:12:00.246Z,97675.38
2023-01-22T20:14:32.663Z,97598.69
2023-01-22T20:17:02.425Z,97585.78
2023-01-22T20:19:31.194Z,97646.78
2023-01-22T20:22:03.186Z,97602.78
2023-01-22T20:24:31.419Z,97610.81
2023-01-22T20:26:59.831Z,97638.03
2023-01-22T20:29:28.078Z,97642.88
2023-01-22T20:31:56.849Z,97649.72
2023-01-22T20:34:25.081Z,97672.22
2023-01-22T20:36:53.357Z,97606.22
2023-01-22T20:39:22.943Z,97642.78
2023-01-22T20:41:51.229Z,97633.78
2023-01-22T20:44:20.032Z,97619.25
2023-01-22T20:46:48.901Z,97623.78
2023-01-22T20:49:17.158Z,97655.03
2023-01-22T20:51:45.402Z,97658.78
2023-01-22T20:54:13.922Z,97650.13
2023-01-22T20:56:43.553Z,97595.31
2023-01-22T20:59:18.465Z,97609.81
2023-01-22T21:01:46.923Z,97639.09
2023-01-22T21:04:15.584Z,97640.06
2023-01-22T21:06:45.129Z,97650.56
2023-01-22T21:09:14.117Z,97620.66
2023-01-22T21:11:44.474Z,97665.38
2023-01-22T21:14:17.874Z,97605.84
2023-01-22T21:16:46.414Z,97631.25
2023-01-22T21:19:18.610Z,97551.97
2023-01-22T21:21:48.032Z,97616.66
2023-01-22T21:24:16.997Z,97655.81
2023-01-22T21:26:47.086Z,97660.31
2023-01-22T21:29:19.830Z,97629.31
2023-01-22T21:31:50.159Z,97612.59
2023-01-22T21:34:23.161Z,97624.00
2023-01-22T21:36:54.067Z,97643.56
2023-01-22T21:39:25.092Z,97647.34
2023-01-22T21:42:16.111Z,97785.88
2023-01-22T21:45:02.830Z,97658.69
2023-01-22T21:47:34.928Z,97656.72
2023-01-22T21:50:03.497Z,97550.09
2023-01-22T21:52:31.705Z,97716.13
2023-01-22T21:55:00.165Z,97654.19
2023-01-22T21:57:29.946Z,97622.53
2023-01-22T21:59:58.143Z,97608.25
2023-01-22T22:02:27.176Z,97680.59
2023-01-22T22:04:55.597Z,97662.09
2023-01-22T22:07:23.830Z,97649.03
2023-01-22T22:09:52.126Z,97687.41
2023-01-22T22:12:20.348Z,97666.22
2023-01-22T22:14:49.904Z,97669.59
2023-01-22T22:17:18.140Z,97636.88
2023-01-22T22:19:46.319Z,97670.53
2023-01-22T22:22:16.736Z,97694.31
2023-01-22T22:24:45.034Z,97733.91
2023-01-22T22:27:13.244Z,97682.28
2023-01-22T22:29:41.597Z,97670.50
2023-01-22T22:32:11.162Z,97677.34
2023-01-22T22:34:39.382Z,97726.47
2023-01-22T22:37:07.629Z,97699.06
2023-01-22T22:39:35.850Z,97706.06
2023-01-22T22:42:08.652Z,97673.19
2023-01-22T22:44:37.804Z,97699.06
2023-01-22T22:47:06.160Z,97681.84
2023-01-22T22:49:35.683Z,97639.22
2023-01-22T22:52:03.961Z,97706.91
2023-01-22T22:54:32.152Z,97670.19
2023-01-22T22:57:00.400Z,97678.53
2023-01-22T22:59:28.650Z,97625.81
2023-01-22T23:01:56.896Z,97683.34
2023-01-22T23:04:25.556Z,97657.22
2023-01-22T23:06:59.672Z,97696.06
2023-01-22T23:09:28.470Z,97702.75
2023-01-22T23:11:59.439Z,97696.28
2023-01-22T23:14:27.995Z,97659.69
2023-01-22T23:16:57.658Z,97694.72
2023-01-22T23:19:27.842Z,97657.13
2023-01-22T23:21:59.472Z,97712.09
2023-01-22T23:24:28.446Z,97684.09
2023-01-22T23:26:57.113Z,97694.72
2023-01-22T23:29:26.694Z,97682.44
2023-01-22T23:31:56.003Z,97678.91
2023-01-22T23:34:24.575Z,97678.84
2023-01-22T23:36:53.089Z,97693.75
2023-01-22T23:39:23.364Z,97681.22
2023-01-22T23:41:51.662Z,97692.34
2023-01-22T23:44:19.943Z,97669.13
2023-01-22T23:46:48.223Z,97660.81
2023-01-22T23:49:16.610Z,97695.38
2023-01-22T23:51:45.822Z,97673.47
2023-01-22T23:54:14.102Z,97643.28
2023-01-22T23:56:43.683Z,97610.16
2023-01-22T23:59:12.929Z,97543.88
